Enter the Airport ICAO Code

Search by Airport or City

Current Weather

LFML | Marseille Provence Airport

Marseille, Provence-Alpes-Côte d'Azur, France

Last Update 29 Minutes Ago

Clear Sky

Temperature of 16 ºC

Moderate Winds from South

Temperature

16 ºC

Dew Point Temperature

07 ºC

Relative Humidity

55.27 %

Wind Direction

South (180º, Without Significant Variations)

Wind Velocity

20 km/h (11 kt)

Gusts

None

Visibility

No Significant Reductions

Sea Level Pressure

1014 hPa (Hectopascals)

Layers of Clouds

None

METAR LFML 201500Z AUTO 18011KT CAVOK 16/07 Q1014 NOSIG

Weather Forecast

LFML | Marseille Provence Airport

Marseille, Provence-Alpes-Côte d'Azur, France

Forecast valid for the next 30 Hours

From now on it is expected:

Clear Sky

Moderate Winds from SouthWest

In 4 to 6 hours it is expected the begining of:

Light to Moderate Winds from Variable Directions

In 16 hours it is expected the begining of 8 hours with intermittent periods of:

Rain

In 22 to 24 hours it is expected the begining of:

Moderate Winds from South

In 28 to 30 hours it is expected the begining of:

Sky Without Significant nor Low Altitude Clouds

Light Winds from Variable Directions

Maximum Temperature

19 ºC in 0 Hours

Minimum Temperature

11 ºC in 12 Hours

TAF LFML 201400Z 2015/2121 22010KT CAVOK TX19/2015Z TN11/2103Z BECMG 2019/2021 VRB05KT TEMPO 2107/2115 RA FEW012 BKN040 BKN100 BECMG 2113/2115 18010KT BECMG 2119/2121 VRB03KT NSC